sensor_id;sensor_type;location;lat;lon;timestamp;P1;durP1;ratioP1;P2;durP2;ratioP2
3689;SDS011;1861;50.240;8.596;2022-09-24T00:01:49;1.63;;;1.53;;
3689;SDS011;1861;50.240;8.596;2022-09-24T00:04:17;3.00;;;1.70;;
3689;SDS011;1861;50.240;8.596;2022-09-24T00:06:46;3.53;;;1.60;;
3689;SDS011;1861;50.240;8.596;2022-09-24T00:09:15;2.40;;;1.60;;
3689;SDS011;1861;50.240;8.596;2022-09-24T00:11:47;1.40;;;1.30;;
3689;SDS011;1861;50.240;8.596;2022-09-24T00:14:16;7.37;;;1.83;;
3689;SDS011;1861;50.240;8.596;2022-09-24T00:16:44;3.90;;;1.97;;
3689;SDS011;1861;50.240;8.596;2022-09-24T00:19:14;1.83;;;1.30;;
3689;SDS011;1861;50.240;8.596;2022-09-24T00:21:42;3.93;;;1.30;;
3689;SDS011;1861;50.240;8.596;2022-09-24T00:24:12;1.67;;;1.37;;
3689;SDS011;1861;50.240;8.596;2022-09-24T00:27:02;3.47;;;1.87;;
3689;SDS011;1861;50.240;8.596;2022-09-24T00:29:32;2.20;;;1.87;;
3689;SDS011;1861;50.240;8.596;2022-09-24T00:32:02;3.00;;;1.50;;
3689;SDS011;1861;50.240;8.596;2022-09-24T00:34:32;1.90;;;1.57;;
3689;SDS011;1861;50.240;8.596;2022-09-24T00:37:00;1.90;;;1.40;;
3689;SDS011;1861;50.240;8.596;2022-09-24T00:39:29;1.57;;;1.47;;
3689;SDS011;1861;50.240;8.596;2022-09-24T00:41:57;4.23;;;1.40;;
3689;SDS011;1861;50.240;8.596;2022-09-24T00:47:22;2.53;;;1.43;;
3689;SDS011;1861;50.240;8.596;2022-09-24T00:49:57;1.20;;;1.10;;
3689;SDS011;1861;50.240;8.596;2022-09-24T00:52:31;2.23;;;1.30;;
3689;SDS011;1861;50.240;8.596;2022-09-24T00:55:00;1.60;;;1.50;;
3689;SDS011;1861;50.240;8.596;2022-09-24T00:57:28;4.20;;;1.53;;
3689;SDS011;1861;50.240;8.596;2022-09-24T00:59:58;1.63;;;1.50;;
3689;SDS011;1861;50.240;8.596;2022-09-24T01:02:26;2.03;;;1.40;;
3689;SDS011;1861;50.240;8.596;2022-09-24T01:04:55;3.07;;;1.50;;
3689;SDS011;1861;50.240;8.596;2022-09-24T01:07:24;1.70;;;1.60;;
3689;SDS011;1861;50.240;8.596;2022-09-24T01:09:52;1.30;;;1.20;;
3689;SDS011;1861;50.240;8.596;2022-09-24T01:12:22;1.83;;;1.47;;
3689;SDS011;1861;50.240;8.596;2022-09-24T01:15:02;1.57;;;1.47;;
3689;SDS011;1861;50.240;8.596;2022-09-24T01:17:38;6.40;;;1.87;;
3689;SDS011;1861;50.240;8.596;2022-09-24T01:20:27;1.70;;;1.60;;
3689;SDS011;1861;50.240;8.596;2022-09-24T01:23:21;1.40;;;1.27;;
3689;SDS011;1861;50.240;8.596;2022-09-24T01:26:21;2.53;;;2.33;;
3689;SDS011;1861;50.240;8.596;2022-09-24T01:29:18;2.33;;;1.37;;
3689;SDS011;1861;50.240;8.596;2022-09-24T01:32:07;1.60;;;1.50;;
3689;SDS011;1861;50.240;8.596;2022-09-24T01:34:43;1.67;;;1.57;;
3689;SDS011;1861;50.240;8.596;2022-09-24T01:37:16;6.30;;;2.33;;
3689;SDS011;1861;50.240;8.596;2022-09-24T01:39:48;2.80;;;1.60;;
3689;SDS011;1861;50.240;8.596;2022-09-24T01:42:20;2.30;;;1.87;;
3689;SDS011;1861;50.240;8.596;2022-09-24T01:44:51;3.17;;;1.50;;
3689;SDS011;1861;50.240;8.596;2022-09-24T01:47:24;2.37;;;1.40;;
3689;SDS011;1861;50.240;8.596;2022-09-24T01:50:01;3.00;;;1.60;;
3689;SDS011;1861;50.240;8.596;2022-09-24T01:52:32;3.60;;;1.50;;
3689;SDS011;1861;50.240;8.596;2022-09-24T01:55:05;4.57;;;1.93;;
3689;SDS011;1861;50.240;8.596;2022-09-24T01:57:37;2.17;;;1.40;;
3689;SDS011;1861;50.240;8.596;2022-09-24T02:00:11;1.60;;;1.50;;
3689;SDS011;1861;50.240;8.596;2022-09-24T02:02:42;1.67;;;1.57;;
3689;SDS011;1861;50.240;8.596;2022-09-24T02:05:14;1.43;;;1.33;;
3689;SDS011;1861;50.240;8.596;2022-09-24T02:07:51;2.47;;;1.27;;
3689;SDS011;1861;50.240;8.596;2022-09-24T02:10:24;1.73;;;1.60;;
3689;SDS011;1861;50.240;8.596;2022-09-24T02:13:00;2.30;;;1.60;;
3689;SDS011;1861;50.240;8.596;2022-09-24T02:15:33;4.90;;;2.13;;
3689;SDS011;1861;50.240;8.596;2022-09-24T02:18:05;1.87;;;1.70;;
3689;SDS011;1861;50.240;8.596;2022-09-24T02:20:37;2.23;;;1.60;;
3689;SDS011;1861;50.240;8.596;2022-09-24T02:23:08;2.53;;;1.70;;
3689;SDS011;1861;50.240;8.596;2022-09-24T02:25:39;2.90;;;1.43;;
3689;SDS011;1861;50.240;8.596;2022-09-24T02:28:10;2.20;;;1.90;;
3689;SDS011;1861;50.240;8.596;2022-09-24T02:30:40;2.07;;;1.87;;
3689;SDS011;1861;50.240;8.596;2022-09-24T02:33:10;2.37;;;1.57;;
3689;SDS011;1861;50.240;8.596;2022-09-24T02:35:54;1.70;;;1.50;;
3689;SDS011;1861;50.240;8.596;2022-09-24T02:38:22;7.17;;;1.93;;
3689;SDS011;1861;50.240;8.596;2022-09-24T02:40:51;3.63;;;1.60;;
3689;SDS011;1861;50.240;8.596;2022-09-24T02:43:20;1.70;;;1.60;;
3689;SDS011;1861;50.240;8.596;2022-09-24T02:45:49;3.83;;;2.00;;
3689;SDS011;1861;50.240;8.596;2022-09-24T02:48:17;2.70;;;1.73;;
3689;SDS011;1861;50.240;8.596;2022-09-24T02:50:45;2.60;;;1.90;;
3689;SDS011;1861;50.240;8.596;2022-09-24T02:53:13;1.83;;;1.57;;
3689;SDS011;1861;50.240;8.596;2022-09-24T02:55:41;1.50;;;1.40;;
3689;SDS011;1861;50.240;8.596;2022-09-24T02:58:09;2.20;;;2.00;;
3689;SDS011;1861;50.240;8.596;2022-09-24T03:00:37;2.73;;;1.90;;
3689;SDS011;1861;50.240;8.596;2022-09-24T03:03:07;2.30;;;2.10;;
3689;SDS011;1861;50.240;8.596;2022-09-24T03:05:35;10.23;;;1.80;;
3689;SDS011;1861;50.240;8.596;2022-09-24T03:08:03;2.13;;;1.80;;
3689;SDS011;1861;50.240;8.596;2022-09-24T03:10:32;3.13;;;1.40;;
3689;SDS011;1861;50.240;8.596;2022-09-24T03:13:01;1.80;;;1.60;;
3689;SDS011;1861;50.240;8.596;2022-09-24T03:15:29;1.70;;;1.60;;
3689;SDS011;1861;50.240;8.596;2022-09-24T03:17:57;2.57;;;1.80;;
3689;SDS011;1861;50.240;8.596;2022-09-24T03:20:26;2.70;;;1.77;;
3689;SDS011;1861;50.240;8.596;2022-09-24T03:22:54;1.97;;;1.80;;
3689;SDS011;1861;50.240;8.596;2022-09-24T03:25:22;6.23;;;1.70;;
3689;SDS011;1861;50.240;8.596;2022-09-24T03:27:52;2.97;;;2.23;;
3689;SDS011;1861;50.240;8.596;2022-09-24T03:30:20;2.87;;;2.10;;
3689;SDS011;1861;50.240;8.596;2022-09-24T03:33:06;2.00;;;1.70;;
3689;SDS011;1861;50.240;8.596;2022-09-24T03:35:35;1.90;;;1.80;;
3689;SDS011;1861;50.240;8.596;2022-09-24T03:38:03;2.10;;;2.00;;
3689;SDS011;1861;50.240;8.596;2022-09-24T03:40:31;2.50;;;1.90;;
3689;SDS011;1861;50.240;8.596;2022-09-24T03:42:59;2.13;;;1.80;;
3689;SDS011;1861;50.240;8.596;2022-09-24T03:45:27;1.77;;;1.67;;
3689;SDS011;1861;50.240;8.596;2022-09-24T03:47:55;3.57;;;1.90;;
3689;SDS011;1861;50.240;8.596;2022-09-24T03:50:23;1.60;;;1.50;;
3689;SDS011;1861;50.240;8.596;2022-09-24T03:52:53;1.53;;;1.43;;
3689;SDS011;1861;50.240;8.596;2022-09-24T03:55:21;2.20;;;1.87;;
3689;SDS011;1861;50.240;8.596;2022-09-24T03:57:49;3.07;;;1.70;;
3689;SDS011;1861;50.240;8.596;2022-09-24T04:00:17;3.83;;;1.80;;
3689;SDS011;1861;50.240;8.596;2022-09-24T04:02:45;2.37;;;1.90;;
3689;SDS011;1861;50.240;8.596;2022-09-24T04:05:13;2.30;;;2.10;;
3689;SDS011;1861;50.240;8.596;2022-09-24T04:07:41;1.87;;;1.77;;
3689;SDS011;1861;50.240;8.596;2022-09-24T04:10:10;1.83;;;1.53;;
3689;SDS011;1861;50.240;8.596;2022-09-24T04:12:39;2.97;;;1.77;;
3689;SDS011;1861;50.240;8.596;2022-09-24T04:15:09;5.27;;;2.17;;
3689;SDS011;1861;50.240;8.596;2022-09-24T04:17:37;2.80;;;1.80;;
3689;SDS011;1861;50.240;8.596;2022-09-24T04:20:05;3.60;;;2.00;;
3689;SDS011;1861;50.240;8.596;2022-09-24T04:22:34;2.37;;;2.10;;
3689;SDS011;1861;50.240;8.596;2022-09-24T04:25:02;2.57;;;2.00;;
3689;SDS011;1861;50.240;8.596;2022-09-24T04:27:32;7.20;;;1.67;;
3689;SDS011;1861;50.240;8.596;2022-09-24T04:30:01;12.03;;;2.30;;
3689;SDS011;1861;50.240;8.596;2022-09-24T04:32:29;2.10;;;2.00;;
3689;SDS011;1861;50.240;8.596;2022-09-24T04:34:57;4.20;;;2.10;;
3689;SDS011;1861;50.240;8.596;2022-09-24T04:37:32;4.13;;;2.13;;
3689;SDS011;1861;50.240;8.596;2022-09-24T04:40:00;1.93;;;1.70;;
3689;SDS011;1861;50.240;8.596;2022-09-24T04:42:28;2.33;;;1.90;;
3689;SDS011;1861;50.240;8.596;2022-09-24T04:44:58;2.83;;;2.30;;
3689;SDS011;1861;50.240;8.596;2022-09-24T04:47:27;4.17;;;2.30;;
3689;SDS011;1861;50.240;8.596;2022-09-24T04:49:55;4.40;;;2.00;;
3689;SDS011;1861;50.240;8.596;2022-09-24T04:52:27;4.80;;;2.40;;
3689;SDS011;1861;50.240;8.596;2022-09-24T04:54:56;2.93;;;2.57;;
3689;SDS011;1861;50.240;8.596;2022-09-24T04:57:25;4.37;;;2.10;;
3689;SDS011;1861;50.240;8.596;2022-09-24T04:59:54;4.37;;;2.30;;
3689;SDS011;1861;50.240;8.596;2022-09-24T05:02:23;8.30;;;2.50;;
3689;SDS011;1861;50.240;8.596;2022-09-24T05:04:51;2.47;;;2.27;;
3689;SDS011;1861;50.240;8.596;2022-09-24T05:07:19;2.17;;;1.97;;
3689;SDS011;1861;50.240;8.596;2022-09-24T05:09:47;3.63;;;1.93;;
3689;SDS011;1861;50.240;8.596;2022-09-24T05:12:15;3.40;;;2.47;;
3689;SDS011;1861;50.240;8.596;2022-09-24T05:14:44;2.27;;;1.80;;
3689;SDS011;1861;50.240;8.596;2022-09-24T05:17:12;6.10;;;2.30;;
3689;SDS011;1861;50.240;8.596;2022-09-24T05:19:42;3.40;;;2.30;;
3689;SDS011;1861;50.240;8.596;2022-09-24T05:22:10;3.00;;;2.23;;
3689;SDS011;1861;50.240;8.596;2022-09-24T05:24:38;3.60;;;2.30;;
3689;SDS011;1861;50.240;8.596;2022-09-24T05:27:07;4.30;;;2.30;;
3689;SDS011;1861;50.240;8.596;2022-09-24T05:29:36;2.07;;;1.97;;
3689;SDS011;1861;50.240;8.596;2022-09-24T05:32:05;4.37;;;2.30;;
3689;SDS011;1861;50.240;8.596;2022-09-24T05:34:34;4.37;;;2.43;;
3689;SDS011;1861;50.240;8.596;2022-09-24T05:37:03;2.70;;;2.30;;
3689;SDS011;1861;50.240;8.596;2022-09-24T05:39:31;2.23;;;1.80;;
3689;SDS011;1861;50.240;8.596;2022-09-24T05:42:00;5.50;;;2.30;;
3689;SDS011;1861;50.240;8.596;2022-09-24T05:44:29;2.63;;;2.13;;
3689;SDS011;1861;50.240;8.596;2022-09-24T05:46:57;4.57;;;2.27;;
3689;SDS011;1861;50.240;8.596;2022-09-24T05:49:26;2.47;;;2.07;;
3689;SDS011;1861;50.240;8.596;2022-09-24T05:51:54;5.00;;;2.40;;
3689;SDS011;1861;50.240;8.596;2022-09-24T05:54:23;3.63;;;2.27;;
3689;SDS011;1861;50.240;8.596;2022-09-24T05:56:51;4.07;;;2.70;;
3689;SDS011;1861;50.240;8.596;2022-09-24T05:59:19;4.50;;;2.80;;
3689;SDS011;1861;50.240;8.596;2022-09-24T06:01:47;3.20;;;2.40;;
3689;SDS011;1861;50.240;8.596;2022-09-24T06:04:15;5.50;;;2.87;;
3689;SDS011;1861;50.240;8.596;2022-09-24T06:06:43;4.17;;;2.33;;
3689;SDS011;1861;50.240;8.596;2022-09-24T06:09:12;3.50;;;2.53;;
3689;SDS011;1861;50.240;8.596;2022-09-24T06:11:41;2.87;;;1.97;;
3689;SDS011;1861;50.240;8.596;2022-09-24T06:14:09;4.87;;;2.23;;
3689;SDS011;1861;50.240;8.596;2022-09-24T06:16:38;4.20;;;2.57;;
3689;SDS011;1861;50.240;8.596;2022-09-24T06:19:06;4.30;;;3.03;;
3689;SDS011;1861;50.240;8.596;2022-09-24T06:21:34;5.70;;;3.00;;
3689;SDS011;1861;50.240;8.596;2022-09-24T06:24:03;4.90;;;3.20;;
3689;SDS011;1861;50.240;8.596;2022-09-24T06:26:31;5.30;;;2.90;;
3689;SDS011;1861;50.240;8.596;2022-09-24T06:29:00;4.80;;;3.20;;
3689;SDS011;1861;50.240;8.596;2022-09-24T06:31:30;3.60;;;3.13;;
3689;SDS011;1861;50.240;8.596;2022-09-24T06:34:00;3.37;;;2.67;;
3689;SDS011;1861;50.240;8.596;2022-09-24T06:36:29;6.10;;;3.20;;
3689;SDS011;1861;50.240;8.596;2022-09-24T06:38:57;3.23;;;2.80;;
3689;SDS011;1861;50.240;8.596;2022-09-24T06:41:25;7.13;;;2.70;;
3689;SDS011;1861;50.240;8.596;2022-09-24T06:43:53;4.70;;;3.17;;
3689;SDS011;1861;50.240;8.596;2022-09-24T06:46:22;4.13;;;2.93;;
3689;SDS011;1861;50.240;8.596;2022-09-24T06:48:51;5.13;;;3.23;;
3689;SDS011;1861;50.240;8.596;2022-09-24T06:51:20;5.57;;;3.50;;
3689;SDS011;1861;50.240;8.596;2022-09-24T06:53:49;4.43;;;3.90;;
3689;SDS011;1861;50.240;8.596;2022-09-24T06:56:18;5.40;;;3.27;;
3689;SDS011;1861;50.240;8.596;2022-09-24T06:58:46;5.40;;;4.10;;
3689;SDS011;1861;50.240;8.596;2022-09-24T07:01:14;5.70;;;3.53;;
3689;SDS011;1861;50.240;8.596;2022-09-24T07:03:44;5.17;;;3.10;;
3689;SDS011;1861;50.240;8.596;2022-09-24T07:06:12;6.23;;;3.87;;
3689;SDS011;1861;50.240;8.596;2022-09-24T07:08:40;8.30;;;3.90;;
3689;SDS011;1861;50.240;8.596;2022-09-24T07:11:08;5.17;;;3.53;;
3689;SDS011;1861;50.240;8.596;2022-09-24T07:13:39;4.10;;;3.27;;
3689;SDS011;1861;50.240;8.596;2022-09-24T07:16:07;6.10;;;4.47;;
3689;SDS011;1861;50.240;8.596;2022-09-24T07:18:35;6.20;;;4.83;;
3689;SDS011;1861;50.240;8.596;2022-09-24T07:21:05;7.47;;;4.90;;
3689;SDS011;1861;50.240;8.596;2022-09-24T07:23:33;7.53;;;5.33;;
3689;SDS011;1861;50.240;8.596;2022-09-24T07:26:01;13.13;;;5.47;;
3689;SDS011;1861;50.240;8.596;2022-09-24T07:28:29;9.35;;;5.40;;
3689;SDS011;1861;50.240;8.596;2022-09-24T07:30:58;9.60;;;5.60;;
3689;SDS011;1861;50.240;8.596;2022-09-24T07:33:26;10.53;;;5.83;;
3689;SDS011;1861;50.240;8.596;2022-09-24T07:35:54;8.10;;;5.93;;
3689;SDS011;1861;50.240;8.596;2022-09-24T07:38:23;7.13;;;5.10;;
3689;SDS011;1861;50.240;8.596;2022-09-24T07:40:55;7.60;;;5.60;;
3689;SDS011;1861;50.240;8.596;2022-09-24T07:43:24;7.63;;;5.13;;
3689;SDS011;1861;50.240;8.596;2022-09-24T07:45:53;16.27;;;6.53;;
3689;SDS011;1861;50.240;8.596;2022-09-24T07:48:23;16.73;;;9.13;;
3689;SDS011;1861;50.240;8.596;2022-09-24T07:50:51;10.53;;;6.53;;
3689;SDS011;1861;50.240;8.596;2022-09-24T07:53:19;9.00;;;5.30;;
3689;SDS011;1861;50.240;8.596;2022-09-24T07:55:50;8.60;;;5.20;;
3689;SDS011;1861;50.240;8.596;2022-09-24T07:58:18;7.80;;;5.27;;
3689;SDS011;1861;50.240;8.596;2022-09-24T08:00:47;6.73;;;5.47;;
3689;SDS011;1861;50.240;8.596;2022-09-24T08:03:15;9.03;;;5.47;;
3689;SDS011;1861;50.240;8.596;2022-09-24T08:05:43;8.10;;;5.67;;
3689;SDS011;1861;50.240;8.596;2022-09-24T08:08:11;8.10;;;5.67;;
3689;SDS011;1861;50.240;8.596;2022-09-24T08:10:40;8.57;;;6.30;;
3689;SDS011;1861;50.240;8.596;2022-09-24T08:13:10;6.43;;;5.40;;
3689;SDS011;1861;50.240;8.596;2022-09-24T08:15:39;7.57;;;5.43;;
3689;SDS011;1861;50.240;8.596;2022-09-24T08:18:07;10.73;;;6.27;;
3689;SDS011;1861;50.240;8.596;2022-09-24T08:20:35;6.80;;;5.87;;
3689;SDS011;1861;50.240;8.596;2022-09-24T08:23:05;7.83;;;5.60;;
3689;SDS011;1861;50.240;8.596;2022-09-24T08:25:35;7.17;;;5.87;;
3689;SDS011;1861;50.240;8.596;2022-09-24T08:28:04;22.13;;;6.00;;
3689;SDS011;1861;50.240;8.596;2022-09-24T08:30:34;9.73;;;6.47;;
3689;SDS011;1861;50.240;8.596;2022-09-24T08:33:03;9.53;;;6.10;;
3689;SDS011;1861;50.240;8.596;2022-09-24T08:35:32;7.90;;;5.90;;
3689;SDS011;1861;50.240;8.596;2022-09-24T08:38:00;8.30;;;6.27;;
3689;SDS011;1861;50.240;8.596;2022-09-24T08:40:29;8.50;;;6.47;;
3689;SDS011;1861;50.240;8.596;2022-09-24T08:43:04;9.87;;;5.80;;
3689;SDS011;1861;50.240;8.596;2022-09-24T08:45:45;13.50;;;6.43;;
3689;SDS011;1861;50.240;8.596;2022-09-24T08:48:35;11.07;;;6.97;;
3689;SDS011;1861;50.240;8.596;2022-09-24T08:51:10;19.93;;;7.73;;
3689;SDS011;1861;50.240;8.596;2022-09-24T08:53:44;7.90;;;6.40;;
3689;SDS011;1861;50.240;8.596;2022-09-24T08:56:16;10.10;;;5.93;;
3689;SDS011;1861;50.240;8.596;2022-09-24T08:58:48;8.20;;;6.07;;
3689;SDS011;1861;50.240;8.596;2022-09-24T09:01:26;9.77;;;6.03;;
3689;SDS011;1861;50.240;8.596;2022-09-24T09:04:03;12.10;;;6.23;;
3689;SDS011;1861;50.240;8.596;2022-09-24T09:06:50;12.27;;;6.83;;
3689;SDS011;1861;50.240;8.596;2022-09-24T09:09:31;8.57;;;5.63;;
3689;SDS011;1861;50.240;8.596;2022-09-24T09:12:09;12.83;;;5.97;;
3689;SDS011;1861;50.240;8.596;2022-09-24T09:14:42;10.03;;;6.43;;
3689;SDS011;1861;50.240;8.596;2022-09-24T09:17:21;8.50;;;6.33;;
3689;SDS011;1861;50.240;8.596;2022-09-24T09:19:56;8.27;;;5.37;;
3689;SDS011;1861;50.240;8.596;2022-09-24T09:22:27;10.70;;;5.85;;
3689;SDS011;1861;50.240;8.596;2022-09-24T09:24:59;8.10;;;5.77;;
3689;SDS011;1861;50.240;8.596;2022-09-24T09:27:37;9.23;;;6.27;;
3689;SDS011;1861;50.240;8.596;2022-09-24T09:30:05;23.77;;;12.00;;
3689;SDS011;1861;50.240;8.596;2022-09-24T09:32:44;9.60;;;6.23;;
3689;SDS011;1861;50.240;8.596;2022-09-24T09:35:27;9.70;;;6.27;;
3689;SDS011;1861;50.240;8.596;2022-09-24T09:38:01;13.13;;;6.50;;
3689;SDS011;1861;50.240;8.596;2022-09-24T09:40:34;11.30;;;6.67;;
3689;SDS011;1861;50.240;8.596;2022-09-24T09:43:08;9.20;;;5.33;;
3689;SDS011;1861;50.240;8.596;2022-09-24T09:45:40;9.77;;;6.30;;
3689;SDS011;1861;50.240;8.596;2022-09-24T09:48:13;15.57;;;6.90;;
3689;SDS011;1861;50.240;8.596;2022-09-24T09:50:45;10.57;;;6.77;;
3689;SDS011;1861;50.240;8.596;2022-09-24T09:53:18;10.90;;;5.53;;
3689;SDS011;1861;50.240;8.596;2022-09-24T09:55:51;8.77;;;5.30;;
3689;SDS011;1861;50.240;8.596;2022-09-24T09:58:21;11.87;;;5.20;;
3689;SDS011;1861;50.240;8.596;2022-09-24T10:00:51;10.93;;;6.63;;
3689;SDS011;1861;50.240;8.596;2022-09-24T10:03:30;8.93;;;6.90;;
3689;SDS011;1861;50.240;8.596;2022-09-24T10:06:01;7.70;;;5.77;;
3689;SDS011;1861;50.240;8.596;2022-09-24T10:08:32;9.13;;;6.47;;
3689;SDS011;1861;50.240;8.596;2022-09-24T10:11:00;10.90;;;5.13;;
3689;SDS011;1861;50.240;8.596;2022-09-24T10:13:29;10.03;;;5.63;;
3689;SDS011;1861;50.240;8.596;2022-09-24T10:15:58;18.07;;;6.60;;
3689;SDS011;1861;50.240;8.596;2022-09-24T10:18:31;8.30;;;4.93;;
3689;SDS011;1861;50.240;8.596;2022-09-24T10:21:02;8.87;;;6.10;;
3689;SDS011;1861;50.240;8.596;2022-09-24T10:23:35;6.60;;;5.07;;
3689;SDS011;1861;50.240;8.596;2022-09-24T10:26:05;10.63;;;6.10;;
3689;SDS011;1861;50.240;8.596;2022-09-24T10:28:36;9.17;;;6.30;;
3689;SDS011;1861;50.240;8.596;2022-09-24T10:31:25;8.50;;;5.73;;
3689;SDS011;1861;50.240;8.596;2022-09-24T10:33:58;8.50;;;6.20;;
3689;SDS011;1861;50.240;8.596;2022-09-24T10:36:28;8.87;;;5.53;;
3689;SDS011;1861;50.240;8.596;2022-09-24T10:39:02;11.07;;;5.83;;
3689;SDS011;1861;50.240;8.596;2022-09-24T10:41:44;13.37;;;6.00;;
3689;SDS011;1861;50.240;8.596;2022-09-24T10:44:12;9.37;;;5.60;;
3689;SDS011;1861;50.240;8.596;2022-09-24T10:47:00;7.13;;;5.10;;
3689;SDS011;1861;50.240;8.596;2022-09-24T10:49:45;9.20;;;5.70;;
3689;SDS011;1861;50.240;8.596;2022-09-24T10:52:37;10.87;;;4.90;;
3689;SDS011;1861;50.240;8.596;2022-09-24T10:55:14;9.40;;;5.73;;
3689;SDS011;1861;50.240;8.596;2022-09-24T10:57:50;5.80;;;5.00;;
3689;SDS011;1861;50.240;8.596;2022-09-24T11:00:30;4.90;;;3.90;;
3689;SDS011;1861;50.240;8.596;2022-09-24T11:03:23;7.80;;;5.40;;
3689;SDS011;1861;50.240;8.596;2022-09-24T11:06:01;11.80;;;5.00;;
3689;SDS011;1861;50.240;8.596;2022-09-24T11:08:50;9.00;;;4.87;;
3689;SDS011;1861;50.240;8.596;2022-09-24T11:11:33;11.73;;;6.25;;
3689;SDS011;1861;50.240;8.596;2022-09-24T11:14:13;11.77;;;6.10;;
3689;SDS011;1861;50.240;8.596;2022-09-24T11:16:57;8.70;;;6.37;;
3689;SDS011;1861;50.240;8.596;2022-09-24T11:19:49;19.87;;;8.27;;
3689;SDS011;1861;50.240;8.596;2022-09-24T11:22:31;11.73;;;6.30;;
3689;SDS011;1861;50.240;8.596;2022-09-24T11:25:18;8.50;;;5.33;;
3689;SDS011;1861;50.240;8.596;2022-09-24T11:28:00;9.07;;;5.43;;
3689;SDS011;1861;50.240;8.596;2022-09-24T11:30:39;21.00;;;9.30;;
3689;SDS011;1861;50.240;8.596;2022-09-24T11:33:21;14.83;;;7.27;;
3689;SDS011;1861;50.240;8.596;2022-09-24T11:36:04;7.93;;;5.10;;
3689;SDS011;1861;50.240;8.596;2022-09-24T11:38:45;8.43;;;5.60;;
3689;SDS011;1861;50.240;8.596;2022-09-24T11:41:25;7.27;;;5.07;;
3689;SDS011;1861;50.240;8.596;2022-09-24T11:44:11;6.10;;;4.70;;
3689;SDS011;1861;50.240;8.596;2022-09-24T11:46:54;5.57;;;4.17;;
3689;SDS011;1861;50.240;8.596;2022-09-24T11:49:35;6.57;;;4.00;;
3689;SDS011;1861;50.240;8.596;2022-09-24T11:52:11;7.30;;;3.90;;
3689;SDS011;1861;50.240;8.596;2022-09-24T11:54:51;7.07;;;4.10;;
3689;SDS011;1861;50.240;8.596;2022-09-24T11:57:27;8.00;;;3.97;;
3689;SDS011;1861;50.240;8.596;2022-09-24T11:59:57;10.37;;;6.27;;
3689;SDS011;1861;50.240;8.596;2022-09-24T12:02:31;8.87;;;5.17;;
3689;SDS011;1861;50.240;8.596;2022-09-24T12:05:04;11.30;;;5.43;;
3689;SDS011;1861;50.240;8.596;2022-09-24T12:07:36;17.83;;;7.83;;
3689;SDS011;1861;50.240;8.596;2022-09-24T12:10:18;10.73;;;5.53;;
3689;SDS011;1861;50.240;8.596;2022-09-24T12:12:52;5.63;;;3.70;;
3689;SDS011;1861;50.240;8.596;2022-09-24T12:15:29;10.00;;;4.70;;
3689;SDS011;1861;50.240;8.596;2022-09-24T12:18:02;8.23;;;3.70;;
3689;SDS011;1861;50.240;8.596;2022-09-24T12:20:39;7.00;;;4.60;;
3689;SDS011;1861;50.240;8.596;2022-09-24T12:23:13;9.83;;;3.27;;
3689;SDS011;1861;50.240;8.596;2022-09-24T12:25:45;5.17;;;4.17;;
3689;SDS011;1861;50.240;8.596;2022-09-24T12:28:19;8.47;;;3.90;;
3689;SDS011;1861;50.240;8.596;2022-09-24T12:31:09;18.70;;;5.37;;
3689;SDS011;1861;50.240;8.596;2022-09-24T12:34:01;3.80;;;2.77;;
3689;SDS011;1861;50.240;8.596;2022-09-24T12:36:41;9.90;;;4.93;;
3689;SDS011;1861;50.240;8.596;2022-09-24T12:39:23;6.17;;;4.70;;
3689;SDS011;1861;50.240;8.596;2022-09-24T12:41:57;10.53;;;3.80;;
3689;SDS011;1861;50.240;8.596;2022-09-24T12:44:29;10.63;;;4.00;;
3689;SDS011;1861;50.240;8.596;2022-09-24T12:47:01;4.57;;;3.30;;
3689;SDS011;1861;50.240;8.596;2022-09-24T12:49:31;7.93;;;3.93;;
3689;SDS011;1861;50.240;8.596;2022-09-24T12:52:02;4.07;;;3.67;;
3689;SDS011;1861;50.240;8.596;2022-09-24T12:54:42;8.83;;;3.53;;
3689;SDS011;1861;50.240;8.596;2022-09-24T12:57:14;9.17;;;4.00;;
3689;SDS011;1861;50.240;8.596;2022-09-24T12:59:51;4.70;;;3.13;;
3689;SDS011;1861;50.240;8.596;2022-09-24T13:02:21;8.03;;;3.60;;
3689;SDS011;1861;50.240;8.596;2022-09-24T13:07:53;5.90;;;3.73;;
3689;SDS011;1861;50.240;8.596;2022-09-24T13:10:23;7.13;;;4.07;;
3689;SDS011;1861;50.240;8.596;2022-09-24T13:12:55;4.60;;;3.50;;
3689;SDS011;1861;50.240;8.596;2022-09-24T13:15:28;5.70;;;3.23;;
3689;SDS011;1861;50.240;8.596;2022-09-24T13:17:59;6.97;;;3.27;;
3689;SDS011;1861;50.240;8.596;2022-09-24T13:20:30;11.10;;;3.50;;
3689;SDS011;1861;50.240;8.596;2022-09-24T13:23:10;4.77;;;3.00;;
3689;SDS011;1861;50.240;8.596;2022-09-24T13:25:40;8.60;;;3.80;;
3689;SDS011;1861;50.240;8.596;2022-09-24T13:28:22;3.70;;;3.03;;
3689;SDS011;1861;50.240;8.596;2022-09-24T13:31:07;3.93;;;2.20;;
3689;SDS011;1861;50.240;8.596;2022-09-24T13:33:41;2.87;;;2.07;;
3689;SDS011;1861;50.240;8.596;2022-09-24T13:36:13;5.83;;;2.63;;
3689;SDS011;1861;50.240;8.596;2022-09-24T13:38:47;4.00;;;3.03;;
3689;SDS011;1861;50.240;8.596;2022-09-24T13:41:24;5.20;;;2.87;;
3689;SDS011;1861;50.240;8.596;2022-09-24T13:44:12;3.93;;;2.00;;
3689;SDS011;1861;50.240;8.596;2022-09-24T13:46:44;7.23;;;2.03;;
3689;SDS011;1861;50.240;8.596;2022-09-24T13:49:17;6.50;;;3.27;;
3689;SDS011;1861;50.240;8.596;2022-09-24T13:51:58;4.10;;;2.90;;
3689;SDS011;1861;50.240;8.596;2022-09-24T13:54:36;2.60;;;2.20;;
3689;SDS011;1861;50.240;8.596;2022-09-24T13:57:19;3.37;;;2.20;;
3689;SDS011;1861;50.240;8.596;2022-09-24T13:59:49;3.57;;;2.50;;
3689;SDS011;1861;50.240;8.596;2022-09-24T14:02:30;9.13;;;3.30;;
3689;SDS011;1861;50.240;8.596;2022-09-24T14:05:05;7.67;;;2.87;;
3689;SDS011;1861;50.240;8.596;2022-09-24T14:07:40;3.43;;;2.50;;
3689;SDS011;1861;50.240;8.596;2022-09-24T14:10:11;5.07;;;2.80;;
3689;SDS011;1861;50.240;8.596;2022-09-24T14:12:40;3.50;;;2.97;;
3689;SDS011;1861;50.240;8.596;2022-09-24T14:15:11;3.27;;;2.27;;
3689;SDS011;1861;50.240;8.596;2022-09-24T14:17:41;3.83;;;2.60;;
3689;SDS011;1861;50.240;8.596;2022-09-24T14:20:11;6.20;;;3.47;;
3689;SDS011;1861;50.240;8.596;2022-09-24T14:22:41;4.70;;;2.63;;
3689;SDS011;1861;50.240;8.596;2022-09-24T14:25:13;6.20;;;3.00;;
3689;SDS011;1861;50.240;8.596;2022-09-24T14:27:44;4.43;;;2.80;;
3689;SDS011;1861;50.240;8.596;2022-09-24T14:30:17;4.53;;;3.67;;
3689;SDS011;1861;50.240;8.596;2022-09-24T14:32:49;4.90;;;3.30;;
3689;SDS011;1861;50.240;8.596;2022-09-24T14:35:20;5.10;;;3.70;;
3689;SDS011;1861;50.240;8.596;2022-09-24T14:37:57;6.30;;;3.23;;
3689;SDS011;1861;50.240;8.596;2022-09-24T14:40:27;4.03;;;3.47;;
3689;SDS011;1861;50.240;8.596;2022-09-24T14:42:56;3.73;;;3.20;;
3689;SDS011;1861;50.240;8.596;2022-09-24T14:45:30;5.63;;;2.97;;
3689;SDS011;1861;50.240;8.596;2022-09-24T14:48:03;7.40;;;3.73;;
3689;SDS011;1861;50.240;8.596;2022-09-24T14:50:35;5.00;;;3.23;;
3689;SDS011;1861;50.240;8.596;2022-09-24T14:53:12;8.50;;;2.90;;
3689;SDS011;1861;50.240;8.596;2022-09-24T14:55:46;5.47;;;2.87;;
3689;SDS011;1861;50.240;8.596;2022-09-24T14:58:22;3.70;;;2.87;;
3689;SDS011;1861;50.240;8.596;2022-09-24T15:00:53;3.23;;;2.70;;
3689;SDS011;1861;50.240;8.596;2022-09-24T15:03:25;7.37;;;2.60;;
3689;SDS011;1861;50.240;8.596;2022-09-24T15:06:02;2.43;;;2.17;;
3689;SDS011;1861;50.240;8.596;2022-09-24T15:08:32;4.30;;;2.73;;
3689;SDS011;1861;50.240;8.596;2022-09-24T15:11:00;3.13;;;2.43;;
3689;SDS011;1861;50.240;8.596;2022-09-24T15:13:31;5.10;;;3.20;;
3689;SDS011;1861;50.240;8.596;2022-09-24T15:16:02;2.80;;;2.40;;
3689;SDS011;1861;50.240;8.596;2022-09-24T15:18:32;4.03;;;3.20;;
3689;SDS011;1861;50.240;8.596;2022-09-24T15:21:01;3.50;;;2.63;;
3689;SDS011;1861;50.240;8.596;2022-09-24T15:23:33;4.00;;;2.40;;
3689;SDS011;1861;50.240;8.596;2022-09-24T15:26:01;3.30;;;2.37;;
3689;SDS011;1861;50.240;8.596;2022-09-24T15:28:30;2.10;;;1.83;;
3689;SDS011;1861;50.240;8.596;2022-09-24T15:30:58;3.30;;;2.60;;
3689;SDS011;1861;50.240;8.596;2022-09-24T15:33:28;4.67;;;2.43;;
3689;SDS011;1861;50.240;8.596;2022-09-24T15:35:56;3.10;;;2.20;;
3689;SDS011;1861;50.240;8.596;2022-09-24T15:38:24;3.37;;;2.27;;
3689;SDS011;1861;50.240;8.596;2022-09-24T15:40:52;2.57;;;2.13;;
3689;SDS011;1861;50.240;8.596;2022-09-24T15:43:21;2.57;;;2.00;;
3689;SDS011;1861;50.240;8.596;2022-09-24T15:45:50;2.63;;;2.07;;
3689;SDS011;1861;50.240;8.596;2022-09-24T15:48:18;4.27;;;2.10;;
3689;SDS011;1861;50.240;8.596;2022-09-24T15:50:47;3.47;;;2.47;;